Logo AVAMET
Benvolgut visitant, si us plau, ingressa Recuperar contrasenya
AVAMET paisatges

Vilallonga nord

Dades diàries. Acumulats / Últims 30 dies disponibles

Data Temperatura (°C) Humitat rel. (%) Pressió rel. (hPa) Vent (km/h) Precipitació
Mínima Mitjana Màxima Amplitud
tèrmica
Mínima Mitjana Màxima Mínima Mitjana Màxima Predom. Mitjana Ràfega
màxima
Total
(mm)
Índex-n
Mínima Mitjana Màxima Mínima Mitjana Màxima n
0 a 1
P0 max
mm 5'
Dades mensuals acumulades fins l'últim dia disponible
01/2021 1,8 4,9 8,7 7,8 7,6 11,6 17,0 15,2 31 67 96 1.006 1.016 1.030   4,0 45,1 146,8
Dades anuals acumulades fins l'últim dia disponible
2021 1,8 4,9 8,7 7,8 7,6 11,6 17,0 15,2 31 67 96 1.006 1.016 1.030   4,0 45,1 146,8
Últims 30 dies disponibles
15-01-2021 6,9     10,7     17,0 10,1 39 51 64 1.022 1.024 1.026 SO 5,0 29,0 0,0
14-01-2021 3,3     8,8     15,6 12,3 32 61 79 1.023 1.025 1.028 SE 1,6 20,9 0,0
13-01-2021 3,8     7,7     13,9 10,1 34 57 74 1.027 1.028 1.030 SSE 2,7 25,7 0,0
12-01-2021 2,9     6,8     14,1 11,2 37 64 86 1.026 1.027 1.029 SSE 3,4 25,7 0,0
11-01-2021 4,7     7,0     9,4 4,7 71 85 92 1.018 1.021 1.026 E 1,3 16,1 0,0
10-01-2021 4,4     6,2     7,8 3,4 86 90 94 1.009 1.012 1.018 S 1,9 17,7 8,8 0,40 1,00
09-01-2021 4,6     6,5     8,3 3,7 87 93 96 1.006 1.007 1.009 SSE 2,3 22,5 24,6 0,37 0,70
08-01-2021 4,9     6,7     8,3 3,4 90 93 95 1.008 1.012 1.014 ENE 4,1 29,0 71,0 0,40 0,70
07-01-2021 5,2     6,6     7,6 2,4 78 91 94 1.011 1.013 1.015 ESE 0,3 12,9 42,4 0,96 10,40
06-01-2021 1,8     5,9     11,4 9,6 43 64 79 1.013 1.015 1.016 SE 1,8 22,5 0,0
05-01-2021 4,4     7,4     12,6 8,2 31 54 68 1.011 1.012 1.014 SO 3,8 24,1 0,0
04-01-2021 6,3     9,2     12,0 5,7 43 52 66 1.010 1.012 1.014 OSO 7,9 43,5 0,0
03-01-2021 5,2     8,4     12,3 7,1 36 44 52 1.012 1.013 1.015 O 7,0 33,8 0,0
02-01-2021 6,3     8,2     10,2 3,9 42 48 56 1.009 1.010 1.012 O 10,0 45,1 0,0
01-01-2021 8,7     10,8     13,3 4,6 36 53 62 1.006 1.008 1.010 O 7,4 40,2 0,0
31-12-2020 7,4     10,9     15,3 7,9 36 48 56 1.011 1.015 1.018 OSO 6,2 43,5 0,0
30-12-2020 8,4     10,5     13,8 5,4 36 46 55 1.010 1.015 1.018 OSO 5,9 35,4 0,0
29-12-2020 9,8     11,2     13,4 3,6 44 52 58 1.004 1.006 1.010 OSO 10,8 49,9 0,0
28-12-2020 11,1     13,6     17,8 6,7 18 41 71 997 1.002 1.005 OSO 9,4 69,2 1,0
27-12-2020 3,9     11,6     18,5 14,6 17 37 61 1.002 1.013 1.023 SO 6,8 62,8 0,0
26-12-2020 5,1     8,2     13,9 8,8 25 40 49 1.024 1.026 1.028 SSO 3,8 22,5 0,0
25-12-2020 7,3     11,3     13,8 6,5 25 55 83 1.021 1.024 1.027 O 3,9 35,4 0,0
24-12-2020 11,1     14,5     17,7 6,6 54 68 86 1.021 1.022 1.023 SSE 1,7 19,3 0,0
23-12-2020 10,0     14,9     22,3 12,3 52 72 87 1.022 1.024 1.026 ESE 0,5 12,9 0,0
22-12-2020 9,4     13,1     18,7 9,3 56 78 90 1.026 1.028 1.030 E 0,6 16,1 0,0
21-12-2020 8,4     12,7     20,2 11,8 45 70 82 1.027 1.028 1.030 SSE 2,5 20,9 0,0
20-12-2020 11,0     14,1     18,7 7,7 48 71 85 1.021 1.024 1.028 S 2,1 20,9 0,0
19-12-2020 8,5     13,0     19,1 10,6 52 74 88 1.019 1.021 1.023 SE 1,5 17,7 0,0
18-12-2020 8,9     12,1     17,9 9,0 62 80 89 1.022 1.024 1.025 SE 2,1 19,3 0,0
17-12-2020 10,1     12,2     16,9 6,8 70 84 90 1.020 1.022 1.025 SE 2,1 17,7 0,0
Últims 13 mesos disponibles
12/2020 3,9 9,6 17,1 13,1 12,1 17,4 22,7 18,8 37 60 84 998 1.015 1.028 OSO 5,6 69,2 8,8
11/2020 7,3 12,4 17,2 15,5 14,4 20,0 24,7 17,4 64 80 94 1.007 1.022 1.030 SSE 2,2 41,8 173,0
10/2020 10,6 15,2 19,4 19,4 20,1 24,5 32,4 21,8 41 57 78 998 1.017 1.026 S 4,1 69,2 4,6
09/2020 14,3 19,5 22,8 23,8 23,8 28,3 33,1 18,8 34 62 83 1.011 1.017 1.023 E 3,4 46,7 31,8
08/2020 17,1 23,3 25,3 27,8 25,3 33,3 41,7 24,6 35 64 85 1.004 1.013 1.018 ESE 3,3 46,7 17,6
07/2020 19,8 22,8 24,8 26,9 28,2 31,9 38,7 18,9 50 68 79 1.011 1.016 1.020 E 3,7 48,3 10,2
06/2020 15,7 19,5 23,6 24,4 21,1 29,8 34,0 18,3 34 64 82 1.005 1.014 1.021 ESE 3,9 45,1 18,4
05/2020 13,2 16,9 20,6 21,4 19,1 26,6 33,2 20,0 42 64 86 1.006 1.017 1.027 ESE 3,8 45,1 63,6
04/2020 9,1 13,0 19,4 16,1 15,1 20,0 26,7 17,6 42 74 93 1.006 1.016 1.026 NE 3,2 46,7 60,0
03/2020 7,3 11,3 16,8 14,6 10,8 18,5 24,9 17,6 42 70 95 1.008 1.018 1.027 OSO 4,6 72,4 120,8
02/2020 6,8 10,9 15,5 15,5 14,3 21,0 26,7 19,9 31 65 89 1.014 1.026 1.033 SE 3,3 43,5 5,6
01/2020 4,0 8,2 15,8 11,5 10,9 16,3 21,9 17,9 49 74 97 1.016 1.026 1.033 SSE 3,8 67,6 214,2
12/2019 5,9 11,5 20,4 14,4 12,8 18,4 25,7 19,8 44 67 92 1.003 1.019 1.033 SSE 5,4 72,4 307,2
Tots els anys disponibles
2020 3,9 15,2 25,3 19,2 10,8 24,0 41,7 37,8 31 67 97 998 1.018 1.033 E 3,8 72,4 728,6
2019 2,1 15,0 26,9 19,0 11,7 23,8 40,2 38,1 32 62 96 996 1.017 1.034 ESE 4,3 72,4 928,9
Temperatura (°C)
Humitat relativa (%)
Velocitat del vent i ràfega màxima (km/h)
Direcció del vent (°)
Pressió (hPa)
Precipitació (mm)
Nota sobre les dades: s'avisa a l'usuari de la provisionalitat i no oficialitat d'aquestes dades
Logo AVAMET blanc
Web allotjada a Sollutia
Llicència de Creative CommonsLa web d'AVAMET i els seus continguts estan subjectes a una llicència de
Reconeixement - No Comercial - Compartir igual
Avís legal - Política de privacitat - Política de cookies
NOVES ESTACIONS: Onda - CR Cota 220 (Soci), Artana (Ajuntament/Soci), Sax (Soci), Benicarló - Sant Gregori (Soci), Riba-roja de Túria - la Reva (Soci), Castielfabib - Arroyo Cerezo (Pròpia d'AVAMET), Tavernes de la Valldigna - Ull del Bou/Cambro (Soci), Chella - Casa Conde (Soci), El Genovés (Inforatge), Benirredrà (Inforatge), Villena - Finca La Glòria (Soci), València - l'Olivereta (Soci) - - -